createdAt,value
2023-03-10T00:00:00.575Z,39.60
2023-03-10T00:02:30.457Z,35.53
2023-03-10T00:04:57.085Z,37.55
2023-03-10T00:07:23.526Z,35.72
2023-03-10T00:09:49.925Z,35.28
2023-03-10T00:12:16.328Z,34.35
2023-03-10T00:14:42.795Z,33.97
2023-03-10T00:17:09.242Z,32.08
2023-03-10T00:19:35.656Z,33.08
2023-03-10T00:22:04.777Z,32.60
2023-03-10T00:24:31.191Z,30.30
2023-03-10T00:26:57.908Z,30.85
2023-03-10T00:29:26.217Z,30.48
2023-03-10T00:31:53.573Z,29.73
2023-03-10T00:34:19.997Z,30.48
2023-03-10T00:36:46.396Z,30.88
2023-03-10T00:39:13.303Z,28.25
2023-03-10T00:41:39.697Z,27.80
2023-03-10T00:44:09.372Z,28.70
2023-03-10T00:46:38.416Z,27.90
2023-03-10T00:49:06.413Z,29.27
2023-03-10T00:51:32.939Z,28.48
2023-03-10T00:54:01.038Z,27.60
2023-03-10T00:56:28.518Z,28.13
2023-03-10T00:58:57.146Z,29.80
2023-03-10T01:01:29.960Z,28.60
2023-03-10T01:03:59.811Z,29.30
2023-03-10T01:06:26.463Z,29.50
2023-03-10T01:08:53.693Z,28.10
2023-03-10T01:11:23.545Z,26.75
2023-03-10T01:13:50.705Z,25.50
2023-03-10T01:16:17.154Z,28.23
2023-03-10T01:18:43.905Z,28.98
2023-03-10T01:21:16.470Z,28.25
2023-03-10T01:23:42.887Z,27.58
2023-03-10T01:26:09.294Z,27.25
2023-03-10T01:28:35.771Z,26.55
2023-03-10T01:31:04.921Z,26.73
2023-03-10T01:33:31.355Z,26.42
2023-03-10T01:35:58.621Z,26.95
2023-03-10T01:38:25.080Z,26.63
2023-03-10T01:40:51.580Z,26.73
2023-03-10T01:43:20.917Z,26.92
2023-03-10T01:45:47.575Z,26.38
2023-03-10T01:48:16.956Z,24.15
2023-03-10T01:50:46.487Z,25.02
2023-03-10T01:53:15.969Z,23.10
2023-03-10T01:55:48.374Z,24.08
2023-03-10T01:58:16.803Z,22.95
2023-03-10T02:00:43.869Z,24.52
2023-03-10T02:03:18.031Z,22.88
2023-03-10T02:06:19.427Z,24.00
2023-03-10T02:11:16.294Z,23.40
2023-03-10T02:13:42.952Z,24.77
2023-03-10T02:16:10.028Z,22.42
2023-03-10T02:18:36.565Z,22.45
2023-03-10T02:21:22.003Z,23.67
2023-03-10T02:24:01.603Z,23.35
2023-03-10T02:26:40.228Z,24.30
2023-03-10T02:29:10.479Z,24.15
2023-03-10T02:31:37.554Z,24.45
2023-03-10T02:34:06.659Z,22.05
2023-03-10T02:36:33.133Z,26.40
2023-03-10T02:38:59.596Z,25.17
2023-03-10T02:41:33.638Z,24.05
2023-03-10T02:44:04.332Z,23.10
2023-03-10T02:46:30.990Z,27.10
2023-03-10T02:49:02.317Z,22.45
2023-03-10T02:51:42.863Z,24.20
2023-03-10T02:54:13.326Z,22.20
2023-03-10T02:56:42.356Z,20.83
2023-03-10T02:59:10.490Z,21.60
2023-03-10T03:01:41.342Z,22.23
2023-03-10T03:04:07.866Z,19.13
2023-03-10T03:06:35.299Z,20.85
2023-03-10T03:09:02.067Z,19.75
2023-03-10T03:11:30.086Z,19.13
2023-03-10T03:13:56.608Z,19.90
2023-03-10T03:16:24.574Z,18.77
2023-03-10T03:18:55.174Z,17.63
2023-03-10T03:21:23.313Z,18.98
2023-03-10T03:23:50.007Z,17.95
2023-03-10T03:26:22.267Z,17.40
2023-03-10T03:28:52.124Z,16.95
2023-03-10T03:31:24.565Z,17.02
2023-03-10T03:33:57.311Z,16.40
2023-03-10T03:36:24.433Z,18.35
2023-03-10T03:38:51.290Z,17.70
2023-03-10T03:41:18.114Z,16.90
2023-03-10T03:43:44.637Z,16.67
2023-03-10T03:46:11.658Z,16.17
2023-03-10T03:48:38.564Z,16.88
2023-03-10T03:51:08.255Z,16.15
2023-03-10T03:53:39.321Z,16.35
2023-03-10T03:56:05.971Z,16.30
2023-03-10T03:58:34.947Z,16.52
2023-03-10T04:01:01.485Z,15.68
2023-03-10T04:03:32.128Z,16.27
2023-03-10T04:05:58.883Z,17.13
2023-03-10T04:08:25.796Z,15.55
2023-03-10T04:10:55.419Z,16.83
2023-03-10T04:13:25.550Z,16.08
2023-03-10T04:15:59.492Z,16.25
2023-03-10T04:18:31.324Z,14.90
2023-03-10T04:20:58.317Z,16.10
2023-03-10T04:23:25.277Z,14.82
2023-03-10T04:25:52.173Z,15.82
2023-03-10T04:28:18.686Z,16.45
2023-03-10T04:30:48.239Z,14.30
2023-03-10T04:33:16.829Z,15.05
2023-03-10T04:35:47.600Z,15.60
2023-03-10T04:38:15.410Z,16.25
2023-03-10T04:40:42.086Z,15.45
2023-03-10T04:43:09.146Z,15.40
2023-03-10T04:45:35.820Z,15.13
2023-03-10T04:48:02.935Z,14.55
2023-03-10T04:50:29.457Z,15.23
2023-03-10T04:52:56.402Z,16.05
2023-03-10T04:55:26.665Z,15.90
2023-03-10T04:57:53.124Z,15.00
2023-03-10T05:00:20.070Z,16.20
2023-03-10T05:02:46.572Z,16.02
2023-03-10T05:05:13.325Z,16.85
2023-03-10T05:07:43.710Z,12.07
2023-03-10T05:10:10.866Z,17.10
2023-03-10T05:12:42.128Z,17.48
2023-03-10T05:15:10.244Z,17.55
2023-03-10T05:17:36.882Z,16.77
2023-03-10T05:20:04.950Z,17.85
2023-03-10T05:22:31.495Z,17.38
2023-03-10T05:24:57.933Z,17.33
2023-03-10T05:27:24.633Z,16.98
2023-03-10T05:29:51.078Z,16.98
2023-03-10T05:32:24.022Z,17.20
2023-03-10T05:34:50.448Z,17.63
2023-03-10T05:37:18.289Z,17.90
2023-03-10T05:39:44.877Z,17.65
2023-03-10T05:42:16.528Z,17.58
2023-03-10T05:44:43.012Z,17.23
2023-03-10T05:47:09.525Z,19.08
2023-03-10T05:49:38.609Z,17.95
2023-03-10T05:52:06.109Z,18.20
2023-03-10T05:54:33.010Z,18.23
2023-03-10T05:56:59.531Z,18.23
2023-03-10T05:59:27.943Z,18.17
2023-03-10T06:01:55.010Z,19.33
2023-03-10T06:04:21.454Z,18.27
2023-03-10T06:06:47.949Z,17.98
2023-03-10T06:09:14.343Z,18.65
2023-03-10T06:11:40.729Z,18.17
2023-03-10T06:14:07.123Z,19.25
2023-03-10T06:16:33.581Z,18.63
2023-03-10T06:19:00.037Z,19.55
2023-03-10T06:21:28.232Z,18.90
2023-03-10T06:23:54.778Z,18.35
2023-03-10T06:26:22.798Z,19.48
2023-03-10T06:28:49.196Z,18.70
2023-03-10T06:31:18.643Z,19.58
2023-03-10T06:33:45.446Z,19.13
2023-03-10T06:36:12.924Z,18.88
2023-03-10T06:38:40.112Z,20.45
2023-03-10T06:41:06.991Z,19.35
2023-03-10T06:43:33.815Z,18.60
2023-03-10T06:46:04.399Z,19.33
2023-03-10T06:48:30.869Z,20.85
2023-03-10T06:50:57.267Z,19.70
2023-03-10T06:53:23.702Z,19.90
2023-03-10T06:56:01.989Z,19.77
2023-03-10T06:58:30.174Z,19.17
2023-03-10T07:00:56.784Z,19.65
2023-03-10T07:03:25.959Z,18.88
2023-03-10T07:05:52.978Z,18.60
2023-03-10T07:08:19.415Z,18.45
2023-03-10T07:10:45.857Z,18.15
2023-03-10T07:13:15.484Z,17.75
2023-03-10T07:15:42.209Z,18.95
2023-03-10T07:18:08.611Z,18.95
2023-03-10T07:20:35.505Z,19.35
2023-03-10T07:23:01.898Z,19.73
2023-03-10T07:25:28.300Z,18.98
2023-03-10T07:27:54.701Z,19.83
2023-03-10T07:30:21.277Z,19.73
2023-03-10T07:32:47.691Z,21.08
2023-03-10T07:35:14.129Z,19.42
2023-03-10T07:37:40.798Z,19.25
2023-03-10T07:40:08.482Z,20.23
2023-03-10T07:42:35.172Z,18.95
2023-03-10T07:45:02.046Z,19.10
2023-03-10T07:47:28.436Z,19.45
2023-03-10T07:49:54.841Z,19.30
2023-03-10T07:52:21.341Z,19.65
2023-03-10T07:54:47.830Z,21.88
2023-03-10T07:57:15.103Z,20.70
2023-03-10T07:59:42.008Z,19.95
2023-03-10T08:02:12.603Z,19.65
2023-03-10T08:04:39.372Z,21.77
2023-03-10T08:07:05.935Z,21.08
2023-03-10T08:09:33.002Z,21.88
2023-03-10T08:11:59.778Z,21.15
2023-03-10T08:14:28.658Z,21.33
2023-03-10T08:16:56.617Z,22.48
2023-03-10T08:19:27.413Z,21.15
2023-03-10T08:21:55.973Z,21.95
2023-03-10T08:24:22.458Z,21.38
2023-03-10T08:26:48.862Z,23.40
2023-03-10T08:29:15.270Z,22.33
2023-03-10T08:31:41.812Z,22.88
2023-03-10T08:34:08.603Z,22.58
2023-03-10T08:36:35.412Z,22.75
2023-03-10T08:39:02.195Z,22.90
2023-03-10T08:41:36.178Z,22.55
2023-03-10T08:44:03.894Z,22.60
2023-03-10T08:46:32.029Z,23.48
2023-03-10T08:48:59.496Z,23.35
2023-03-10T08:51:27.116Z,23.17
2023-03-10T08:53:54.024Z,23.17
2023-03-10T08:56:22.255Z,23.67
2023-03-10T08:58:48.713Z,23.20
2023-03-10T09:01:16.838Z,23.13
2023-03-10T09:03:44.426Z,23.45
2023-03-10T09:06:11.041Z,23.80
2023-03-10T09:08:37.450Z,22.60
2023-03-10T09:11:04.046Z,23.25
2023-03-10T09:13:30.467Z,24.13
2023-03-10T09:15:56.991Z,22.88
2023-03-10T09:18:23.516Z,23.77
2023-03-10T09:20:50.322Z,21.63
2023-03-10T09:23:16.848Z,22.13
2023-03-10T09:25:43.310Z,20.50
2023-03-10T09:28:11.529Z,22.77
2023-03-10T09:30:40.827Z,22.13
2023-03-10T09:33:16.803Z,20.65
2023-03-10T09:35:52.552Z,23.45
2023-03-10T09:38:19.424Z,23.42
2023-03-10T09:41:13.823Z,21.20
2023-03-10T09:43:50.323Z,20.92
2023-03-10T09:46:28.954Z,20.55
2023-03-10T09:49:25.789Z,19.58
2023-03-10T09:51:52.404Z,20.45
2023-03-10T09:54:39.096Z,23.45
2023-03-10T09:57:20.836Z,22.60
2023-03-10T09:59:50.512Z,22.73
2023-03-10T10:02:30.563Z,21.80
2023-03-10T10:05:03.256Z,23.08
2023-03-10T10:07:42.675Z,23.42
2023-03-10T10:10:24.619Z,23.50
2023-03-10T10:12:52.504Z,24.75
2023-03-10T10:15:22.581Z,22.48
2023-03-10T10:18:33.919Z,22.83
2023-03-10T10:21:10.555Z,21.90
2023-03-10T10:23:52.251Z,22.13
2023-03-10T10:26:21.015Z,21.33
2023-03-10T10:28:55.600Z,16.63
2023-03-10T10:31:25.226Z,15.25
2023-03-10T10:33:57.893Z,15.10
2023-03-10T10:36:27.364Z,14.88
2023-03-10T10:38:55.399Z,14.25
2023-03-10T10:41:26.115Z,16.73
2023-03-10T10:43:56.367Z,17.48
2023-03-10T10:46:29.651Z,18.17
2023-03-10T10:49:26.717Z,18.20
2023-03-10T10:52:18.158Z,17.75
2023-03-10T10:54:54.126Z,18.85
2023-03-10T10:57:23.103Z,18.05
2023-03-10T10:59:49.539Z,17.95
2023-03-10T11:02:30.996Z,16.98
2023-03-10T11:05:18.325Z,15.95
2023-03-10T11:07:45.281Z,14.95
2023-03-10T11:10:16.996Z,15.57
2023-03-10T11:13:05.683Z,15.65
2023-03-10T11:15:39.553Z,15.52
2023-03-10T11:18:23.374Z,16.63
2023-03-10T11:21:07.019Z,17.35
2023-03-10T11:23:52.343Z,14.80
2023-03-10T11:26:31.141Z,14.30
2023-03-10T11:29:14.730Z,14.73
2023-03-10T11:32:08.160Z,13.00
2023-03-10T11:34:45.739Z,14.90
2023-03-10T11:37:40.868Z,15.20
2023-03-10T11:40:23.550Z,14.82
2023-03-10T11:42:56.501Z,14.75
2023-03-10T11:45:54.717Z,15.82
2023-03-10T11:48:29.677Z,13.98
2023-03-10T11:50:59.257Z,14.55
2023-03-10T11:53:33.220Z,12.88
2023-03-10T11:56:01.694Z,13.73
2023-03-10T11:58:54.888Z,14.15
2023-03-10T12:01:30.948Z,13.35
2023-03-10T12:04:06.480Z,13.25
2023-03-10T12:06:44.639Z,12.77
2023-03-10T12:09:25.292Z,13.02
2023-03-10T12:11:52.938Z,12.93
2023-03-10T12:14:19.997Z,12.80
2023-03-10T12:16:47.552Z,12.52
2023-03-10T12:19:13.976Z,13.43
2023-03-10T12:21:40.477Z,12.93
2023-03-10T12:24:47.062Z,12.52
2023-03-10T12:27:13.480Z,11.50
2023-03-10T12:29:42.271Z,11.88
2023-03-10T12:32:38.618Z,12.85
2023-03-10T12:35:29.202Z,11.75
2023-03-10T12:38:33.405Z,12.07
2023-03-10T12:41:01.375Z,12.50
2023-03-10T12:43:43.044Z,13.18
2023-03-10T12:46:12.502Z,13.40
2023-03-10T12:48:47.597Z,13.88
2023-03-10T12:51:20.428Z,12.30
2023-03-10T12:54:14.798Z,11.07
2023-03-10T12:56:57.315Z,10.20
2023-03-10T12:59:43.959Z,9.55
2023-03-10T13:02:31.914Z,10.07
2023-03-10T13:05:06.751Z,10.02
2023-03-10T13:07:35.306Z,11.13
2023-03-10T13:10:03.434Z,10.57
2023-03-10T13:12:46.371Z,10.27
2023-03-10T13:15:26.066Z,8.70
2023-03-10T13:17:55.166Z,10.40
2023-03-10T13:20:22.981Z,8.63
2023-03-10T13:22:54.638Z,10.00
2023-03-10T13:25:21.172Z,9.43
2023-03-10T13:27:47.573Z,8.85
2023-03-10T13:30:19.929Z,9.45
2023-03-10T13:32:58.380Z,8.77
2023-03-10T13:35:38.311Z,8.25
2023-03-10T13:38:16.646Z,8.20
2023-03-10T13:40:48.530Z,8.40
2023-03-10T13:43:30.600Z,7.68
2023-03-10T13:45:58.737Z,8.32
2023-03-10T13:48:26.652Z,8.55
2023-03-10T13:51:05.282Z,7.95
2023-03-10T13:53:31.903Z,8.60
2023-03-10T13:55:58.387Z,7.88
2023-03-10T13:58:26.065Z,8.40
2023-03-10T14:00:56.232Z,8.10
2023-03-10T14:03:23.042Z,7.57
2023-03-10T14:05:49.915Z,9.30
2023-03-10T14:08:28.644Z,8.57
2023-03-10T14:11:21.957Z,9.13
2023-03-10T14:13:48.566Z,8.40
2023-03-10T14:16:15.114Z,9.40
2023-03-10T14:18:43.472Z,8.48
2023-03-10T14:21:31.161Z,8.73
2023-03-10T14:24:09.940Z,8.00
2023-03-10T14:26:38.505Z,7.93
2023-03-10T14:29:14.728Z,8.82
2023-03-10T14:31:41.145Z,8.88
2023-03-10T14:34:12.452Z,8.57
2023-03-10T14:36:39.963Z,8.18
2023-03-10T14:39:09.381Z,8.13
2023-03-10T14:41:36.139Z,8.50
2023-03-10T14:44:02.890Z,8.40
2023-03-10T14:46:30.081Z,9.05
2023-03-10T14:48:56.597Z,10.90
2023-03-10T14:51:35.095Z,10.95
2023-03-10T14:54:02.710Z,11.25
2023-03-10T14:56:30.128Z,11.13
2023-03-10T14:58:58.274Z,10.82
2023-03-10T15:01:24.792Z,10.38
2023-03-10T15:03:51.444Z,11.18
2023-03-10T15:06:19.648Z,11.43
2023-03-10T15:08:46.079Z,10.77
2023-03-10T15:11:12.602Z,10.80
2023-03-10T15:13:39.467Z,12.20
2023-03-10T15:16:06.740Z,12.43
2023-03-10T15:18:33.212Z,13.20
2023-03-10T15:21:00.490Z,11.95
2023-03-10T15:23:28.653Z,14.35
2023-03-10T15:25:55.973Z,13.20
2023-03-10T15:28:23.044Z,12.45
2023-03-10T15:30:49.892Z,14.02
2023-03-10T15:33:16.708Z,13.50
2023-03-10T15:35:43.481Z,13.77
2023-03-10T15:38:13.953Z,13.43
2023-03-10T15:40:40.730Z,14.75
2023-03-10T15:43:07.454Z,13.82
2023-03-10T15:45:34.045Z,14.25
2023-03-10T15:48:00.473Z,14.18
2023-03-10T15:50:27.480Z,16.05
2023-03-10T15:52:56.634Z,15.80
2023-03-10T15:55:23.917Z,17.38
2023-03-10T15:57:51.266Z,16.08
2023-03-10T16:00:19.141Z,16.15
2023-03-10T16:02:46.769Z,17.40
2023-03-10T16:05:13.655Z,15.95
2023-03-10T16:07:40.062Z,17.02
2023-03-10T16:10:08.768Z,16.65
2023-03-10T16:12:35.164Z,17.00
2023-03-10T16:15:01.554Z,18.23
2023-03-10T16:17:29.185Z,17.88
2023-03-10T16:19:55.600Z,17.58
2023-03-10T16:22:22.031Z,16.42
2023-03-10T16:24:48.426Z,18.02
2023-03-10T16:27:15.745Z,16.00
2023-03-10T16:29:42.152Z,17.30
2023-03-10T16:32:08.982Z,16.10
2023-03-10T16:34:35.943Z,16.58
2023-03-10T16:37:02.597Z,16.17
2023-03-10T16:39:32.724Z,14.93
2023-03-10T16:41:59.352Z,15.00
2023-03-10T16:44:26.143Z,14.65
2023-03-10T16:46:52.567Z,15.82
2023-03-10T16:49:19.072Z,13.85
2023-03-10T16:51:47.543Z,14.35
2023-03-10T16:54:17.140Z,13.13
2023-03-10T16:56:46.305Z,13.13
2023-03-10T16:59:18.764Z,11.90
2023-03-10T17:01:45.770Z,12.57
2023-03-10T17:04:12.703Z,12.52
2023-03-10T17:06:39.543Z,11.73
2023-03-10T17:09:08.867Z,11.27
2023-03-10T17:11:40.772Z,10.60
2023-03-10T17:14:10.653Z,10.90
2023-03-10T17:16:37.665Z,11.55
2023-03-10T17:19:06.889Z,11.65
2023-03-10T17:21:35.991Z,10.82
2023-03-10T17:24:03.831Z,11.60
2023-03-10T17:26:30.613Z,12.13
2023-03-10T17:28:57.430Z,11.52
2023-03-10T17:31:26.254Z,10.68
2023-03-10T17:33:55.394Z,10.55
2023-03-10T17:36:22.073Z,10.82
2023-03-10T17:38:48.502Z,10.68
2023-03-10T17:41:16.161Z,13.30
2023-03-10T17:43:42.876Z,16.38
2023-03-10T17:46:21.384Z,12.65
2023-03-10T17:48:48.242Z,12.95
2023-03-10T17:51:26.135Z,12.48
2023-03-10T17:53:53.195Z,12.07
2023-03-10T17:56:21.865Z,12.10
2023-03-10T17:58:49.597Z,11.48
2023-03-10T18:01:19.347Z,11.30
2023-03-10T18:03:48.206Z,12.10
2023-03-10T18:06:23.796Z,11.98
2023-03-10T18:08:51.106Z,12.32
2023-03-10T18:11:19.889Z,12.32
2023-03-10T18:13:46.609Z,14.80
2023-03-10T18:16:21.773Z,13.60
2023-03-10T18:18:49.482Z,13.25
2023-03-10T18:21:17.702Z,14.60
2023-03-10T18:23:45.396Z,14.05
2023-03-10T18:26:14.840Z,14.07
2023-03-10T18:28:42.011Z,14.35
2023-03-10T18:31:17.237Z,14.20
2023-03-10T18:33:43.709Z,15.30
2023-03-10T18:36:13.584Z,15.68
2023-03-10T18:38:40.637Z,13.32
2023-03-10T18:41:07.120Z,13.90
2023-03-10T18:43:34.184Z,13.48
2023-03-10T18:46:01.353Z,12.63
2023-03-10T18:48:28.644Z,13.20
2023-03-10T18:50:56.514Z,13.88
2023-03-10T18:53:24.118Z,13.77
2023-03-10T18:55:50.604Z,13.77
2023-03-10T18:58:17.013Z,13.63
2023-03-10T19:00:43.389Z,14.55
2023-03-10T19:03:12.875Z,13.93
2023-03-10T19:05:40.312Z,14.27
2023-03-10T19:08:07.156Z,12.65
2023-03-10T19:10:33.594Z,13.55
2023-03-10T19:13:00.035Z,14.90
2023-03-10T19:15:26.497Z,14.10
2023-03-10T19:17:53.019Z,14.77
2023-03-10T19:20:19.412Z,15.63
2023-03-10T19:22:49.565Z,15.82
2023-03-10T19:25:16.603Z,15.47
2023-03-10T19:27:43.203Z,16.42
2023-03-10T19:30:12.795Z,16.45
2023-03-10T19:32:39.737Z,16.48
2023-03-10T19:35:08.699Z,17.58
2023-03-10T19:37:36.202Z,17.30
2023-03-10T19:40:06.032Z,17.25
2023-03-10T19:42:34.106Z,18.35
2023-03-10T19:45:01.083Z,18.88
2023-03-10T19:47:30.478Z,19.08
2023-03-10T19:49:56.874Z,19.40
2023-03-10T19:52:23.914Z,18.90
2023-03-10T19:54:51.214Z,19.40
2023-03-10T19:57:17.626Z,18.15
2023-03-10T19:59:44.047Z,19.20
2023-03-10T20:02:14.979Z,18.73
2023-03-10T20:04:41.752Z,20.65
2023-03-10T20:07:08.175Z,19.20
2023-03-10T20:09:34.697Z,21.08
2023-03-10T20:12:01.149Z,21.35
2023-03-10T20:14:27.692Z,21.40
2023-03-10T20:16:54.332Z,21.20
2023-03-10T20:19:22.737Z,21.88
2023-03-10T20:21:50.416Z,22.83
2023-03-10T20:24:17.808Z,22.63
2023-03-10T20:26:44.459Z,24.00
2023-03-10T20:29:11.549Z,21.83
2023-03-10T20:31:38.080Z,23.95
2023-03-10T20:34:05.874Z,25.30
2023-03-10T20:36:32.581Z,24.05
2023-03-10T20:38:59.440Z,23.80
2023-03-10T20:41:25.880Z,26.15
2023-03-10T20:43:53.402Z,25.98
2023-03-10T20:46:19.986Z,23.58
2023-03-10T20:48:49.827Z,24.30
2023-03-10T20:51:18.689Z,25.10
2023-03-10T20:53:45.480Z,25.75
2023-03-10T20:56:12.234Z,24.40
2023-03-10T20:58:38.775Z,23.95
2023-03-10T21:01:05.338Z,25.08
2023-03-10T21:03:31.927Z,23.67
2023-03-10T21:05:58.333Z,23.08
2023-03-10T21:08:24.767Z,23.77
2023-03-10T21:10:51.634Z,22.92
2023-03-10T21:13:18.051Z,23.73
2023-03-10T21:15:44.451Z,22.40
2023-03-10T21:18:10.877Z,23.88
2023-03-10T21:20:37.278Z,21.30
2023-03-10T21:23:03.706Z,22.80
2023-03-10T21:25:30.166Z,23.38
2023-03-10T21:27:58.679Z,23.73
2023-03-10T21:30:30.589Z,24.30
2023-03-10T21:32:58.087Z,24.20
2023-03-10T21:35:30.377Z,26.05
2023-03-10T21:37:57.315Z,24.20
2023-03-10T21:40:24.310Z,22.88
2023-03-10T21:42:51.127Z,24.05
2023-03-10T21:45:20.541Z,23.00
2023-03-10T21:47:47.455Z,22.55
2023-03-10T21:50:14.928Z,23.23
2023-03-10T21:52:42.051Z,22.33
2023-03-10T21:55:13.329Z,21.25
2023-03-10T21:57:39.785Z,20.52
2023-03-10T22:00:09.287Z,22.70
2023-03-10T22:02:37.019Z,23.88
2023-03-10T22:05:06.052Z,23.67
2023-03-10T22:07:33.236Z,23.73
2023-03-10T22:09:59.859Z,25.73
2023-03-10T22:12:26.329Z,24.45
2023-03-10T22:14:56.300Z,23.27
2023-03-10T22:17:24.641Z,22.65
2023-03-10T22:19:54.624Z,23.63
2023-03-10T22:22:22.021Z,22.77
2023-03-10T22:24:48.757Z,22.42
2023-03-10T22:27:15.750Z,20.98
2023-03-10T22:29:42.154Z,21.13
2023-03-10T22:32:08.648Z,21.80
2023-03-10T22:34:35.101Z,22.98
2023-03-10T22:37:01.508Z,22.80
2023-03-10T22:39:27.928Z,22.38
2023-03-10T22:41:54.380Z,24.55
2023-03-10T22:44:20.907Z,23.67
2023-03-10T22:46:47.502Z,24.13
2023-03-10T22:49:14.740Z,24.02
2023-03-10T22:51:41.216Z,23.42
2023-03-10T22:54:07.730Z,25.27
2023-03-10T22:56:34.170Z,25.55
2023-03-10T22:59:03.771Z,24.10
2023-03-10T23:01:30.420Z,24.05
2023-03-10T23:03:56.872Z,23.67
2023-03-10T23:06:24.471Z,22.92
2023-03-10T23:08:51.810Z,21.17
2023-03-10T23:11:18.300Z,22.00
2023-03-10T23:13:44.713Z,23.45
2023-03-10T23:16:11.139Z,24.33
2023-03-10T23:18:37.561Z,22.65
2023-03-10T23:21:04.751Z,24.85
2023-03-10T23:23:31.893Z,22.48
2023-03-10T23:25:58.336Z,21.33
2023-03-10T23:28:24.753Z,19.77
2023-03-10T23:30:51.450Z,18.15
2023-03-10T23:33:20.363Z,18.67
2023-03-10T23:35:50.276Z,18.85
2023-03-10T23:38:16.757Z,19.33
2023-03-10T23:40:43.151Z,20.90
2023-03-10T23:43:09.618Z,19.10
2023-03-10T23:45:37.463Z,19.80
2023-03-10T23:48:06.979Z,18.42
2023-03-10T23:50:36.411Z,20.85
2023-03-10T23:53:03.966Z,19.73
2023-03-10T23:55:34.725Z,20.25
2023-03-10T23:58:02.185Z,20.25
